sensor_id;sensor_type;location;lat;lon;timestamp;temperature;humidity
254;DHT22;590;48.772;8.846;2023-12-07T00:01:27;2.10;99.90
254;DHT22;590;48.772;8.846;2023-12-07T00:03:55;2.20;99.90
254;DHT22;590;48.772;8.846;2023-12-07T00:06:23;2.20;99.90
254;DHT22;590;48.772;8.846;2023-12-07T00:08:51;2.20;99.90
254;DHT22;590;48.772;8.846;2023-12-07T00:11:19;2.20;99.90
254;DHT22;590;48.772;8.846;2023-12-07T00:13:47;2.20;99.90
254;DHT22;590;48.772;8.846;2023-12-07T00:16:17;2.20;99.90
254;DHT22;590;48.772;8.846;2023-12-07T00:18:45;2.20;99.90
254;DHT22;590;48.772;8.846;2023-12-07T00:21:13;2.20;99.90
254;DHT22;590;48.772;8.846;2023-12-07T00:23:41;2.20;99.90
254;DHT22;590;48.772;8.846;2023-12-07T00:26:09;2.20;99.90
254;DHT22;590;48.772;8.846;2023-12-07T00:28:37;2.20;99.90
254;DHT22;590;48.772;8.846;2023-12-07T00:31:05;2.20;99.90
254;DHT22;590;48.772;8.846;2023-12-07T00:33:35;2.10;99.90
254;DHT22;590;48.772;8.846;2023-12-07T00:36:04;2.10;99.90
254;DHT22;590;48.772;8.846;2023-12-07T00:38:32;2.10;99.90
254;DHT22;590;48.772;8.846;2023-12-07T00:41:00;2.10;99.90
254;DHT22;590;48.772;8.846;2023-12-07T00:43:28;2.10;99.90
254;DHT22;590;48.772;8.846;2023-12-07T00:45:56;2.10;99.90
254;DHT22;590;48.772;8.846;2023-12-07T00:48:25;2.10;99.90
254;DHT22;590;48.772;8.846;2023-12-07T00:50:54;2.10;99.90
254;DHT22;590;48.772;8.846;2023-12-07T00:53:22;2.20;99.90
254;DHT22;590;48.772;8.846;2023-12-07T00:55:50;2.20;99.90
254;DHT22;590;48.772;8.846;2023-12-07T00:58:18;2.20;99.90
254;DHT22;590;48.772;8.846;2023-12-07T01:00:46;2.20;99.90
254;DHT22;590;48.772;8.846;2023-12-07T01:03:15;2.20;99.90
254;DHT22;590;48.772;8.846;2023-12-07T01:05:43;2.20;99.90
254;DHT22;590;48.772;8.846;2023-12-07T01:08:12;2.30;99.90
254;DHT22;590;48.772;8.846;2023-12-07T01:10:40;2.30;99.90
254;DHT22;590;48.772;8.846;2023-12-07T01:15:39;2.30;99.90
254;DHT22;590;48.772;8.846;2023-12-07T01:18:07;2.30;99.90
254;DHT22;590;48.772;8.846;2023-12-07T01:20:35;2.30;99.90
254;DHT22;590;48.772;8.846;2023-12-07T01:23:03;2.20;99.90
254;DHT22;590;48.772;8.846;2023-12-07T01:25:32;2.20;99.90
254;DHT22;590;48.772;8.846;2023-12-07T01:28:01;2.20;99.90
254;DHT22;590;48.772;8.846;2023-12-07T01:30:29;2.20;99.90
254;DHT22;590;48.772;8.846;2023-12-07T01:32:57;2.20;99.90
254;DHT22;590;48.772;8.846;2023-12-07T01:35:25;2.10;99.90
254;DHT22;590;48.772;8.846;2023-12-07T01:37:53;2.10;99.90
254;DHT22;590;48.772;8.846;2023-12-07T01:40:21;2.20;99.90
254;DHT22;590;48.772;8.846;2023-12-07T01:42:51;2.20;99.90
254;DHT22;590;48.772;8.846;2023-12-07T01:45:20;2.20;99.90
254;DHT22;590;48.772;8.846;2023-12-07T01:47:49;2.20;99.90
254;DHT22;590;48.772;8.846;2023-12-07T01:50:20;2.20;99.90
254;DHT22;590;48.772;8.846;2023-12-07T01:52:54;2.20;99.90
254;DHT22;590;48.772;8.846;2023-12-07T01:55:23;2.20;99.90
254;DHT22;590;48.772;8.846;2023-12-07T01:57:52;2.30;99.90
254;DHT22;590;48.772;8.846;2023-12-07T02:00:21;2.20;99.90
254;DHT22;590;48.772;8.846;2023-12-07T02:02:49;2.20;99.90
254;DHT22;590;48.772;8.846;2023-12-07T02:05:17;2.30;99.90
254;DHT22;590;48.772;8.846;2023-12-07T02:07:46;2.20;99.90
254;DHT22;590;48.772;8.846;2023-12-07T02:10:14;2.20;99.90
254;DHT22;590;48.772;8.846;2023-12-07T02:12:43;2.20;99.90
254;DHT22;590;48.772;8.846;2023-12-07T02:15:12;2.10;99.90
254;DHT22;590;48.772;8.846;2023-12-07T02:17:46;2.00;99.90
254;DHT22;590;48.772;8.846;2023-12-07T02:20:23;2.00;99.90
254;DHT22;590;48.772;8.846;2023-12-07T02:22:54;2.00;99.90
254;DHT22;590;48.772;8.846;2023-12-07T02:25:26;2.00;99.90
254;DHT22;590;48.772;8.846;2023-12-07T02:27:58;1.90;99.90
254;DHT22;590;48.772;8.846;2023-12-07T02:30:26;1.80;99.90
254;DHT22;590;48.772;8.846;2023-12-07T02:32:54;1.90;99.90
254;DHT22;590;48.772;8.846;2023-12-07T02:35:23;1.90;99.90
254;DHT22;590;48.772;8.846;2023-12-07T02:37:52;1.90;99.90
254;DHT22;590;48.772;8.846;2023-12-07T02:40:22;1.90;99.90
254;DHT22;590;48.772;8.846;2023-12-07T02:46:40;1.90;99.90
254;DHT22;590;48.772;8.846;2023-12-07T02:49:08;1.90;99.90
254;DHT22;590;48.772;8.846;2023-12-07T02:51:36;1.90;99.90
254;DHT22;590;48.772;8.846;2023-12-07T02:54:04;1.90;99.90
254;DHT22;590;48.772;8.846;2023-12-07T02:56:33;1.90;99.90
254;DHT22;590;48.772;8.846;2023-12-07T02:59:01;1.80;99.90
254;DHT22;590;48.772;8.846;2023-12-07T03:01:29;1.80;99.90
254;DHT22;590;48.772;8.846;2023-12-07T03:03:59;1.80;99.90
254;DHT22;590;48.772;8.846;2023-12-07T03:06:27;1.80;99.90
254;DHT22;590;48.772;8.846;2023-12-07T03:08:55;1.80;99.90
254;DHT22;590;48.772;8.846;2023-12-07T03:11:23;1.70;99.90
254;DHT22;590;48.772;8.846;2023-12-07T03:13:50;1.70;99.90
254;DHT22;590;48.772;8.846;2023-12-07T03:16:18;1.60;99.90
254;DHT22;590;48.772;8.846;2023-12-07T03:18:47;1.60;99.90
254;DHT22;590;48.772;8.846;2023-12-07T03:21:16;1.60;99.90
254;DHT22;590;48.772;8.846;2023-12-07T03:23:44;1.60;99.90
254;DHT22;590;48.772;8.846;2023-12-07T03:26:12;1.60;99.90
254;DHT22;590;48.772;8.846;2023-12-07T03:28:40;1.50;99.90
254;DHT22;590;48.772;8.846;2023-12-07T03:31:08;1.50;99.90
254;DHT22;590;48.772;8.846;2023-12-07T03:33:36;1.40;99.90
254;DHT22;590;48.772;8.846;2023-12-07T03:36:06;1.40;99.90
254;DHT22;590;48.772;8.846;2023-12-07T03:38:35;1.40;99.90
254;DHT22;590;48.772;8.846;2023-12-07T03:41:03;1.30;99.90
254;DHT22;590;48.772;8.846;2023-12-07T03:43:32;1.30;99.90
254;DHT22;590;48.772;8.846;2023-12-07T03:46:03;1.30;99.90
254;DHT22;590;48.772;8.846;2023-12-07T03:48:32;1.20;99.90
254;DHT22;590;48.772;8.846;2023-12-07T03:51:00;1.10;99.90
254;DHT22;590;48.772;8.846;2023-12-07T03:53:28;1.10;99.90
254;DHT22;590;48.772;8.846;2023-12-07T03:55:57;1.00;99.90
254;DHT22;590;48.772;8.846;2023-12-07T03:58:25;1.00;99.90
254;DHT22;590;48.772;8.846;2023-12-07T04:00:54;1.00;99.90
254;DHT22;590;48.772;8.846;2023-12-07T04:03:22;1.00;99.90
254;DHT22;590;48.772;8.846;2023-12-07T04:05:50;1.00;99.90
254;DHT22;590;48.772;8.846;2023-12-07T04:08:18;1.00;99.90
254;DHT22;590;48.772;8.846;2023-12-07T04:10:46;0.90;99.90
254;DHT22;590;48.772;8.846;2023-12-07T04:13:16;0.90;99.90
254;DHT22;590;48.772;8.846;2023-12-07T04:15:45;0.90;99.90
254;DHT22;590;48.772;8.846;2023-12-07T04:18:13;0.80;99.90
254;DHT22;590;48.772;8.846;2023-12-07T04:20:42;0.80;99.90
254;DHT22;590;48.772;8.846;2023-12-07T04:23:10;0.80;99.90
254;DHT22;590;48.772;8.846;2023-12-07T04:25:38;0.80;99.90
254;DHT22;590;48.772;8.846;2023-12-07T04:28:06;0.80;99.90
254;DHT22;590;48.772;8.846;2023-12-07T04:30:35;0.80;99.90
254;DHT22;590;48.772;8.846;2023-12-07T04:33:04;0.70;99.90
254;DHT22;590;48.772;8.846;2023-12-07T04:35:32;0.70;99.90
254;DHT22;590;48.772;8.846;2023-12-07T04:38:00;0.70;99.90
254;DHT22;590;48.772;8.846;2023-12-07T04:40:28;0.60;99.90
254;DHT22;590;48.772;8.846;2023-12-07T04:42:56;0.50;99.90
254;DHT22;590;48.772;8.846;2023-12-07T04:45:25;0.40;99.90
254;DHT22;590;48.772;8.846;2023-12-07T04:47:54;0.40;99.90
254;DHT22;590;48.772;8.846;2023-12-07T04:50:24;0.40;99.90
254;DHT22;590;48.772;8.846;2023-12-07T04:52:52;0.30;99.90
254;DHT22;590;48.772;8.846;2023-12-07T04:55:21;0.30;99.90
254;DHT22;590;48.772;8.846;2023-12-07T04:57:49;0.20;99.90
254;DHT22;590;48.772;8.846;2023-12-07T05:00:18;0.20;99.90
254;DHT22;590;48.772;8.846;2023-12-07T05:02:46;0.20;99.90
254;DHT22;590;48.772;8.846;2023-12-07T05:05:16;0.20;99.90
254;DHT22;590;48.772;8.846;2023-12-07T05:07:44;0.20;99.90
254;DHT22;590;48.772;8.846;2023-12-07T05:10:13;0.20;99.90
254;DHT22;590;48.772;8.846;2023-12-07T05:12:41;0.20;99.90
254;DHT22;590;48.772;8.846;2023-12-07T05:15:09;0.20;99.90
254;DHT22;590;48.772;8.846;2023-12-07T05:17:37;0.20;99.90
254;DHT22;590;48.772;8.846;2023-12-07T05:20:06;0.20;99.90
254;DHT22;590;48.772;8.846;2023-12-07T05:22:36;0.20;99.90
254;DHT22;590;48.772;8.846;2023-12-07T05:25:04;0.20;99.90
254;DHT22;590;48.772;8.846;2023-12-07T05:27:33;0.20;99.90
254;DHT22;590;48.772;8.846;2023-12-07T05:30:01;0.20;99.90
254;DHT22;590;48.772;8.846;2023-12-07T05:32:29;0.20;99.90
254;DHT22;590;48.772;8.846;2023-12-07T05:34:58;0.10;99.90
254;DHT22;590;48.772;8.846;2023-12-07T05:37:26;0.10;99.90
254;DHT22;590;48.772;8.846;2023-12-07T05:39:55;0.10;99.90
254;DHT22;590;48.772;8.846;2023-12-07T05:42:24;0.00;99.90
254;DHT22;590;48.772;8.846;2023-12-07T05:44:52;0.00;99.90
254;DHT22;590;48.772;8.846;2023-12-07T05:47:20;0.00;99.90
254;DHT22;590;48.772;8.846;2023-12-07T05:49:50;0.00;99.90
254;DHT22;590;48.772;8.846;2023-12-07T05:52:18;-0.10;99.90
254;DHT22;590;48.772;8.846;2023-12-07T05:54:46;-0.10;99.90
254;DHT22;590;48.772;8.846;2023-12-07T05:57:16;-0.10;99.90
254;DHT22;590;48.772;8.846;2023-12-07T05:59:44;-0.20;99.90
254;DHT22;590;48.772;8.846;2023-12-07T06:02:12;-0.20;99.90
254;DHT22;590;48.772;8.846;2023-12-07T06:04:40;-0.20;99.90
254;DHT22;590;48.772;8.846;2023-12-07T06:07:08;-0.20;99.90
254;DHT22;590;48.772;8.846;2023-12-07T06:09:38;-0.30;99.90
254;DHT22;590;48.772;8.846;2023-12-07T06:12:06;-0.30;99.90
254;DHT22;590;48.772;8.846;2023-12-07T06:14:52;-0.30;99.90
254;DHT22;590;48.772;8.846;2023-12-07T06:17:21;-0.30;99.90
254;DHT22;590;48.772;8.846;2023-12-07T06:19:49;-0.30;99.90
254;DHT22;590;48.772;8.846;2023-12-07T06:22:17;-0.30;99.90
254;DHT22;590;48.772;8.846;2023-12-07T06:24:45;-0.30;99.90
254;DHT22;590;48.772;8.846;2023-12-07T06:27:14;-0.30;99.90
254;DHT22;590;48.772;8.846;2023-12-07T06:29:42;-0.30;99.90
254;DHT22;590;48.772;8.846;2023-12-07T06:32:11;-0.30;99.90
254;DHT22;590;48.772;8.846;2023-12-07T06:34:40;-0.30;99.90
254;DHT22;590;48.772;8.846;2023-12-07T06:37:09;-0.40;99.90
254;DHT22;590;48.772;8.846;2023-12-07T06:39:39;-0.40;99.90
254;DHT22;590;48.772;8.846;2023-12-07T06:42:07;-0.40;99.90
254;DHT22;590;48.772;8.846;2023-12-07T06:44:52;-0.40;99.90
254;DHT22;590;48.772;8.846;2023-12-07T06:47:21;-0.40;99.90
254;DHT22;590;48.772;8.846;2023-12-07T06:49:50;-0.40;99.90
254;DHT22;590;48.772;8.846;2023-12-07T06:52:19;-0.50;99.90
254;DHT22;590;48.772;8.846;2023-12-07T06:54:47;-0.60;99.90
254;DHT22;590;48.772;8.846;2023-12-07T06:57:16;-0.60;99.90
254;DHT22;590;48.772;8.846;2023-12-07T06:59:44;-0.60;99.90
254;DHT22;590;48.772;8.846;2023-12-07T07:02:12;-0.60;99.90
254;DHT22;590;48.772;8.846;2023-12-07T07:04:41;-0.50;99.90
254;DHT22;590;48.772;8.846;2023-12-07T07:07:11;-0.60;99.90
254;DHT22;590;48.772;8.846;2023-12-07T07:09:39;-0.60;99.90
254;DHT22;590;48.772;8.846;2023-12-07T07:12:07;-0.60;99.90
254;DHT22;590;48.772;8.846;2023-12-07T07:14:35;-0.50;99.90
254;DHT22;590;48.772;8.846;2023-12-07T07:17:04;-0.50;99.90
254;DHT22;590;48.772;8.846;2023-12-07T07:19:32;-0.50;99.90
254;DHT22;590;48.772;8.846;2023-12-07T07:22:01;-0.50;99.90
254;DHT22;590;48.772;8.846;2023-12-07T07:24:29;-0.50;99.90
254;DHT22;590;48.772;8.846;2023-12-07T07:26:58;-0.50;99.90
254;DHT22;590;48.772;8.846;2023-12-07T07:29:26;-0.50;99.90
254;DHT22;590;48.772;8.846;2023-12-07T07:31:56;-0.50;99.90
254;DHT22;590;48.772;8.846;2023-12-07T07:34:24;-0.60;99.90
254;DHT22;590;48.772;8.846;2023-12-07T07:36:52;-0.70;99.90
254;DHT22;590;48.772;8.846;2023-12-07T07:39:22;-0.80;99.90
254;DHT22;590;48.772;8.846;2023-12-07T07:41:50;-0.80;99.90
254;DHT22;590;48.772;8.846;2023-12-07T07:44:18;-0.80;99.90
254;DHT22;590;48.772;8.846;2023-12-07T07:46:46;-0.80;99.90
254;DHT22;590;48.772;8.846;2023-12-07T07:49:14;-0.80;99.90
254;DHT22;590;48.772;8.846;2023-12-07T07:51:42;-0.80;99.90
254;DHT22;590;48.772;8.846;2023-12-07T07:54:10;-0.80;99.90
254;DHT22;590;48.772;8.846;2023-12-07T07:56:39;-0.80;99.90
254;DHT22;590;48.772;8.846;2023-12-07T07:59:07;-0.70;99.90
254;DHT22;590;48.772;8.846;2023-12-07T08:01:35;-0.70;99.90
254;DHT22;590;48.772;8.846;2023-12-07T08:04:04;-0.60;99.90
254;DHT22;590;48.772;8.846;2023-12-07T08:06:32;-0.60;99.90
254;DHT22;590;48.772;8.846;2023-12-07T08:09:03;-0.50;99.90
254;DHT22;590;48.772;8.846;2023-12-07T08:11:32;-0.40;99.90
254;DHT22;590;48.772;8.846;2023-12-07T08:14:01;-0.30;99.90
254;DHT22;590;48.772;8.846;2023-12-07T08:16:29;-0.20;99.90
254;DHT22;590;48.772;8.846;2023-12-07T08:18:57;-0.20;99.90
254;DHT22;590;48.772;8.846;2023-12-07T08:21:26;-0.10;99.90
254;DHT22;590;48.772;8.846;2023-12-07T08:23:57;0.00;99.90
254;DHT22;590;48.772;8.846;2023-12-07T08:26:25;0.00;99.90
254;DHT22;590;48.772;8.846;2023-12-07T08:28:54;0.00;99.90
254;DHT22;590;48.772;8.846;2023-12-07T08:31:24;0.00;99.90
254;DHT22;590;48.772;8.846;2023-12-07T08:33:52;0.10;99.90
254;DHT22;590;48.772;8.846;2023-12-07T08:36:20;0.20;99.90
254;DHT22;590;48.772;8.846;2023-12-07T08:38:48;0.20;99.90
254;DHT22;590;48.772;8.846;2023-12-07T08:41:16;0.20;99.90
254;DHT22;590;48.772;8.846;2023-12-07T08:43:44;0.30;99.90
254;DHT22;590;48.772;8.846;2023-12-07T08:46:13;0.40;99.90
254;DHT22;590;48.772;8.846;2023-12-07T08:48:42;0.50;99.90
254;DHT22;590;48.772;8.846;2023-12-07T08:51:11;0.60;99.90
254;DHT22;590;48.772;8.846;2023-12-07T08:53:39;0.70;99.90
254;DHT22;590;48.772;8.846;2023-12-07T08:56:07;0.80;99.90
254;DHT22;590;48.772;8.846;2023-12-07T08:58:35;0.90;99.90
254;DHT22;590;48.772;8.846;2023-12-07T09:01:04;1.00;99.90
254;DHT22;590;48.772;8.846;2023-12-07T09:03:35;1.10;99.90
254;DHT22;590;48.772;8.846;2023-12-07T09:06:06;1.20;99.90
254;DHT22;590;48.772;8.846;2023-12-07T09:08:35;1.20;99.90
254;DHT22;590;48.772;8.846;2023-12-07T09:11:03;1.30;99.90
254;DHT22;590;48.772;8.846;2023-12-07T09:13:31;1.40;99.90
254;DHT22;590;48.772;8.846;2023-12-07T09:15:59;1.30;99.90
254;DHT22;590;48.772;8.846;2023-12-07T09:18:27;1.40;99.90
254;DHT22;590;48.772;8.846;2023-12-07T09:20:55;1.50;99.90
254;DHT22;590;48.772;8.846;2023-12-07T09:23:25;1.50;99.90
254;DHT22;590;48.772;8.846;2023-12-07T09:25:53;1.50;99.90
254;DHT22;590;48.772;8.846;2023-12-07T09:28:21;1.50;99.90
254;DHT22;590;48.772;8.846;2023-12-07T09:30:49;1.60;99.90
254;DHT22;590;48.772;8.846;2023-12-07T09:33:18;1.60;99.90
254;DHT22;590;48.772;8.846;2023-12-07T09:35:48;1.70;99.90
254;DHT22;590;48.772;8.846;2023-12-07T09:38:16;1.80;99.90
254;DHT22;590;48.772;8.846;2023-12-07T09:40:46;1.90;99.90
254;DHT22;590;48.772;8.846;2023-12-07T09:43:14;2.10;99.90
254;DHT22;590;48.772;8.846;2023-12-07T09:45:44;2.20;99.90
254;DHT22;590;48.772;8.846;2023-12-07T09:48:12;2.30;99.90
254;DHT22;590;48.772;8.846;2023-12-07T09:50:40;2.50;99.90
254;DHT22;590;48.772;8.846;2023-12-07T09:53:08;2.60;99.90
254;DHT22;590;48.772;8.846;2023-12-07T09:55:37;2.60;99.90
254;DHT22;590;48.772;8.846;2023-12-07T09:58:07;2.70;99.90
254;DHT22;590;48.772;8.846;2023-12-07T10:00:36;2.80;99.90
254;DHT22;590;48.772;8.846;2023-12-07T10:03:05;2.80;99.90
254;DHT22;590;48.772;8.846;2023-12-07T10:05:54;2.80;99.90
254;DHT22;590;48.772;8.846;2023-12-07T10:08:29;2.90;99.90
254;DHT22;590;48.772;8.846;2023-12-07T10:11:05;2.90;99.90
254;DHT22;590;48.772;8.846;2023-12-07T10:13:35;3.00;99.90
254;DHT22;590;48.772;8.846;2023-12-07T10:16:08;3.10;99.90
254;DHT22;590;48.772;8.846;2023-12-07T10:18:37;3.20;99.90
254;DHT22;590;48.772;8.846;2023-12-07T10:21:10;3.20;99.90
254;DHT22;590;48.772;8.846;2023-12-07T10:23:40;3.30;99.90
254;DHT22;590;48.772;8.846;2023-12-07T10:26:10;3.40;99.90
254;DHT22;590;48.772;8.846;2023-12-07T10:28:40;3.40;99.90
254;DHT22;590;48.772;8.846;2023-12-07T10:31:09;3.50;99.90
254;DHT22;590;48.772;8.846;2023-12-07T10:33:37;3.60;99.90
254;DHT22;590;48.772;8.846;2023-12-07T10:36:07;3.70;99.90
254;DHT22;590;48.772;8.846;2023-12-07T10:38:35;3.70;99.90
254;DHT22;590;48.772;8.846;2023-12-07T10:41:04;3.70;99.90
254;DHT22;590;48.772;8.846;2023-12-07T10:43:36;3.80;99.40
254;DHT22;590;48.772;8.846;2023-12-07T10:46:07;3.80;96.90
254;DHT22;590;48.772;8.846;2023-12-07T10:48:37;3.90;95.50
254;DHT22;590;48.772;8.846;2023-12-07T10:51:07;3.90;94.80
254;DHT22;590;48.772;8.846;2023-12-07T10:53:40;4.00;92.00
254;DHT22;590;48.772;8.846;2023-12-07T10:56:14;4.00;91.80
254;DHT22;590;48.772;8.846;2023-12-07T10:58:44;4.00;91.90
254;DHT22;590;48.772;8.846;2023-12-07T11:01:14;4.10;92.10
254;DHT22;590;48.772;8.846;2023-12-07T11:03:44;4.20;91.40
254;DHT22;590;48.772;8.846;2023-12-07T11:06:13;4.20;90.70
254;DHT22;590;48.772;8.846;2023-12-07T11:08:44;4.20;90.20
254;DHT22;590;48.772;8.846;2023-12-07T11:11:19;4.30;90.30
254;DHT22;590;48.772;8.846;2023-12-07T11:13:53;4.40;90.80
254;DHT22;590;48.772;8.846;2023-12-07T11:16:30;4.60;90.50
254;DHT22;590;48.772;8.846;2023-12-07T11:18:59;4.70;84.80
254;DHT22;590;48.772;8.846;2023-12-07T11:21:27;4.70;77.60
254;DHT22;590;48.772;8.846;2023-12-07T11:23:55;4.70;77.70
254;DHT22;590;48.772;8.846;2023-12-07T11:26:24;4.70;73.10
254;DHT22;590;48.772;8.846;2023-12-07T11:28:55;4.70;73.10
254;DHT22;590;48.772;8.846;2023-12-07T11:31:23;4.70;69.20
254;DHT22;590;48.772;8.846;2023-12-07T11:33:53;4.70;68.90
254;DHT22;590;48.772;8.846;2023-12-07T11:36:21;4.70;68.80
254;DHT22;590;48.772;8.846;2023-12-07T11:39:16;4.80;70.80
254;DHT22;590;48.772;8.846;2023-12-07T11:41:55;5.00;69.00
254;DHT22;590;48.772;8.846;2023-12-07T11:44:53;5.00;66.40
254;DHT22;590;48.772;8.846;2023-12-07T11:47:21;4.90;60.60
254;DHT22;590;48.772;8.846;2023-12-07T11:49:51;4.90;61.20
254;DHT22;590;48.772;8.846;2023-12-07T11:52:20;4.90;60.10
254;DHT22;590;48.772;8.846;2023-12-07T11:54:49;5.00;61.50
254;DHT22;590;48.772;8.846;2023-12-07T11:57:18;5.00;60.30
254;DHT22;590;48.772;8.846;2023-12-07T11:59:47;5.00;61.40
254;DHT22;590;48.772;8.846;2023-12-07T12:02:16;5.00;62.70
254;DHT22;590;48.772;8.846;2023-12-07T12:04:44;5.00;63.30
254;DHT22;590;48.772;8.846;2023-12-07T12:07:13;5.00;62.90
254;DHT22;590;48.772;8.846;2023-12-07T12:09:41;5.00;62.80
254;DHT22;590;48.772;8.846;2023-12-07T12:12:10;5.00;64.60
254;DHT22;590;48.772;8.846;2023-12-07T12:14:50;5.10;64.70
254;DHT22;590;48.772;8.846;2023-12-07T12:17:19;5.20;62.60
254;DHT22;590;48.772;8.846;2023-12-07T12:19:47;5.20;62.10
254;DHT22;590;48.772;8.846;2023-12-07T12:22:23;5.30;63.00
254;DHT22;590;48.772;8.846;2023-12-07T12:24:51;5.40;63.40
254;DHT22;590;48.772;8.846;2023-12-07T12:27:20;5.50;64.40
254;DHT22;590;48.772;8.846;2023-12-07T12:29:48;5.60;63.80
254;DHT22;590;48.772;8.846;2023-12-07T12:32:17;5.50;61.60
254;DHT22;590;48.772;8.846;2023-12-07T12:34:45;5.50;62.10
254;DHT22;590;48.772;8.846;2023-12-07T12:37:13;5.50;61.30
254;DHT22;590;48.772;8.846;2023-12-07T12:39:43;5.50;62.40
254;DHT22;590;48.772;8.846;2023-12-07T12:42:11;5.50;63.20
254;DHT22;590;48.772;8.846;2023-12-07T12:44:39;5.60;63.20
254;DHT22;590;48.772;8.846;2023-12-07T12:47:08;5.60;63.10
254;DHT22;590;48.772;8.846;2023-12-07T12:49:37;5.60;62.80
254;DHT22;590;48.772;8.846;2023-12-07T12:52:10;5.60;62.20
254;DHT22;590;48.772;8.846;2023-12-07T12:54:43;5.60;62.80
254;DHT22;590;48.772;8.846;2023-12-07T12:57:11;5.70;61.30
254;DHT22;590;48.772;8.846;2023-12-07T12:59:41;5.70;61.40
254;DHT22;590;48.772;8.846;2023-12-07T13:02:09;5.70;60.50
254;DHT22;590;48.772;8.846;2023-12-07T13:04:37;5.60;58.80
254;DHT22;590;48.772;8.846;2023-12-07T13:07:08;5.60;59.10
254;DHT22;590;48.772;8.846;2023-12-07T13:09:36;5.60;58.50
254;DHT22;590;48.772;8.846;2023-12-07T13:12:06;5.50;53.00
254;DHT22;590;48.772;8.846;2023-12-07T13:14:35;5.50;52.10
254;DHT22;590;48.772;8.846;2023-12-07T13:17:05;5.50;46.20
254;DHT22;590;48.772;8.846;2023-12-07T13:19:34;5.40;45.30
254;DHT22;590;48.772;8.846;2023-12-07T13:22:03;5.50;47.50
254;DHT22;590;48.772;8.846;2023-12-07T13:24:31;5.40;35.80
254;DHT22;590;48.772;8.846;2023-12-07T13:26:59;5.30;37.10
254;DHT22;590;48.772;8.846;2023-12-07T13:29:29;5.30;37.30
254;DHT22;590;48.772;8.846;2023-12-07T13:32:03;5.30;37.50
254;DHT22;590;48.772;8.846;2023-12-07T13:34:32;5.20;36.90
254;DHT22;590;48.772;8.846;2023-12-07T13:37:00;5.20;36.70
254;DHT22;590;48.772;8.846;2023-12-07T13:39:28;5.10;36.80
254;DHT22;590;48.772;8.846;2023-12-07T13:41:58;5.10;38.20
254;DHT22;590;48.772;8.846;2023-12-07T13:44:31;5.10;37.20
254;DHT22;590;48.772;8.846;2023-12-07T13:47:00;5.00;38.60
254;DHT22;590;48.772;8.846;2023-12-07T13:49:29;5.00;40.50
254;DHT22;590;48.772;8.846;2023-12-07T13:52:00;5.00;39.20
254;DHT22;590;48.772;8.846;2023-12-07T13:54:34;5.10;41.50
254;DHT22;590;48.772;8.846;2023-12-07T13:57:19;5.10;39.30
254;DHT22;590;48.772;8.846;2023-12-07T13:59:49;5.10;39.50
254;DHT22;590;48.772;8.846;2023-12-07T14:02:18;5.20;37.90
254;DHT22;590;48.772;8.846;2023-12-07T14:04:46;5.20;39.70
254;DHT22;590;48.772;8.846;2023-12-07T14:07:17;5.20;41.50
254;DHT22;590;48.772;8.846;2023-12-07T14:09:48;5.20;39.60
254;DHT22;590;48.772;8.846;2023-12-07T14:12:24;5.10;36.90
254;DHT22;590;48.772;8.846;2023-12-07T14:14:56;5.10;39.10
254;DHT22;590;48.772;8.846;2023-12-07T14:17:25;5.00;39.10
254;DHT22;590;48.772;8.846;2023-12-07T14:20:04;5.00;40.80
254;DHT22;590;48.772;8.846;2023-12-07T14:22:53;5.00;41.30
254;DHT22;590;48.772;8.846;2023-12-07T14:25:21;4.90;40.70
254;DHT22;590;48.772;8.846;2023-12-07T14:27:49;4.90;41.60
254;DHT22;590;48.772;8.846;2023-12-07T14:30:19;4.90;41.30
254;DHT22;590;48.772;8.846;2023-12-07T14:32:48;4.80;43.50
254;DHT22;590;48.772;8.846;2023-12-07T14:35:20;4.80;43.40
254;DHT22;590;48.772;8.846;2023-12-07T14:37:49;4.70;43.60
254;DHT22;590;48.772;8.846;2023-12-07T14:40:18;4.70;42.20
254;DHT22;590;48.772;8.846;2023-12-07T14:42:46;4.60;42.50
254;DHT22;590;48.772;8.846;2023-12-07T14:45:14;4.60;45.00
254;DHT22;590;48.772;8.846;2023-12-07T14:47:44;4.50;46.40
254;DHT22;590;48.772;8.846;2023-12-07T14:50:13;4.50;49.30
254;DHT22;590;48.772;8.846;2023-12-07T14:52:41;4.40;50.40
254;DHT22;590;48.772;8.846;2023-12-07T14:55:10;4.30;48.80
254;DHT22;590;48.772;8.846;2023-12-07T14:57:38;4.30;50.00
254;DHT22;590;48.772;8.846;2023-12-07T15:00:06;4.30;51.00
254;DHT22;590;48.772;8.846;2023-12-07T15:02:35;4.20;53.40
254;DHT22;590;48.772;8.846;2023-12-07T15:05:06;4.00;56.80
254;DHT22;590;48.772;8.846;2023-12-07T15:07:35;4.00;60.90
254;DHT22;590;48.772;8.846;2023-12-07T15:10:04;3.90;62.00
254;DHT22;590;48.772;8.846;2023-12-07T15:12:32;3.90;62.50
254;DHT22;590;48.772;8.846;2023-12-07T15:15:01;3.90;63.50
254;DHT22;590;48.772;8.846;2023-12-07T15:17:29;3.80;64.40
254;DHT22;590;48.772;8.846;2023-12-07T15:19:57;3.80;65.20
254;DHT22;590;48.772;8.846;2023-12-07T15:22:27;3.80;65.20
254;DHT22;590;48.772;8.846;2023-12-07T15:24:55;3.70;65.40
254;DHT22;590;48.772;8.846;2023-12-07T15:27:24;3.70;66.20
254;DHT22;590;48.772;8.846;2023-12-07T15:29:53;3.60;66.30
254;DHT22;590;48.772;8.846;2023-12-07T15:32:21;3.50;67.20
254;DHT22;590;48.772;8.846;2023-12-07T15:34:50;3.50;68.30
254;DHT22;590;48.772;8.846;2023-12-07T15:37:18;3.40;69.10
254;DHT22;590;48.772;8.846;2023-12-07T15:39:47;3.40;69.30
254;DHT22;590;48.772;8.846;2023-12-07T15:42:15;3.30;68.60
254;DHT22;590;48.772;8.846;2023-12-07T15:44:51;3.30;68.10
254;DHT22;590;48.772;8.846;2023-12-07T15:47:19;3.20;69.60
254;DHT22;590;48.772;8.846;2023-12-07T15:49:48;3.10;69.50
254;DHT22;590;48.772;8.846;2023-12-07T15:52:16;3.10;69.20
254;DHT22;590;48.772;8.846;2023-12-07T15:54:44;3.00;69.00
254;DHT22;590;48.772;8.846;2023-12-07T15:57:13;3.00;69.30
254;DHT22;590;48.772;8.846;2023-12-07T15:59:42;2.90;69.00
254;DHT22;590;48.772;8.846;2023-12-07T16:02:10;2.90;68.00
254;DHT22;590;48.772;8.846;2023-12-07T16:04:39;2.80;69.30
254;DHT22;590;48.772;8.846;2023-12-07T16:07:07;2.80;70.50
254;DHT22;590;48.772;8.846;2023-12-07T16:09:38;2.80;71.30
254;DHT22;590;48.772;8.846;2023-12-07T16:12:07;2.70;72.10
254;DHT22;590;48.772;8.846;2023-12-07T16:14:38;2.60;71.40
254;DHT22;590;48.772;8.846;2023-12-07T16:17:07;2.60;72.50
254;DHT22;590;48.772;8.846;2023-12-07T16:19:35;2.50;74.40
254;DHT22;590;48.772;8.846;2023-12-07T16:22:04;2.50;74.60
254;DHT22;590;48.772;8.846;2023-12-07T16:24:34;2.50;74.60
254;DHT22;590;48.772;8.846;2023-12-07T16:27:02;2.50;74.60
254;DHT22;590;48.772;8.846;2023-12-07T16:29:34;2.50;74.50
254;DHT22;590;48.772;8.846;2023-12-07T16:32:04;2.40;74.30
254;DHT22;590;48.772;8.846;2023-12-07T16:34:32;2.40;74.30
254;DHT22;590;48.772;8.846;2023-12-07T16:37:01;2.40;74.10
254;DHT22;590;48.772;8.846;2023-12-07T16:39:29;2.40;73.60
254;DHT22;590;48.772;8.846;2023-12-07T16:41:57;2.30;73.70
254;DHT22;590;48.772;8.846;2023-12-07T16:44:29;2.30;74.20
254;DHT22;590;48.772;8.846;2023-12-07T16:46:58;2.20;73.90
254;DHT22;590;48.772;8.846;2023-12-07T16:49:28;2.20;74.40
254;DHT22;590;48.772;8.846;2023-12-07T16:51:56;2.10;75.60
254;DHT22;590;48.772;8.846;2023-12-07T16:54:26;2.10;76.20
254;DHT22;590;48.772;8.846;2023-12-07T16:56:54;2.10;76.40
254;DHT22;590;48.772;8.846;2023-12-07T16:59:22;2.00;76.00
254;DHT22;590;48.772;8.846;2023-12-07T17:01:50;2.00;77.30
254;DHT22;590;48.772;8.846;2023-12-07T17:04:18;2.00;77.80
254;DHT22;590;48.772;8.846;2023-12-07T17:06:48;2.00;79.00
254;DHT22;590;48.772;8.846;2023-12-07T17:09:24;1.90;79.10